Loggy Bayou, Louisiana
Current Conditions -  °F | °C
As of 4:58 PM on Saturday 25 Oct 2014 (Local Time) from KBAD Reporting Station
Clear Clear  
Wind Chill: 84°   Ceiling: Unl
Heat Index: 85°   Visibility: 10mi
Dew Point: 62°   Wind: 3mph
Humidity: 46%   Direction: 290°WNW
Pressure: 30.07"   Gusts: NA
Location:  32.3415°N, 93.4966°W
Report Text: KBAD 252158Z AUTO 29003KT 10SM CLR 29/17 A3007 RMK AO2 SLP185 T02910165
Loading
Personal Weather Stations






























Interactive Weather Map
Tropical Storm Tracking
New forecast layout! Learn more

10-Day Weather Forecast

Advertisements
Track Severe Weather on mobile